createdAt,value
2022-11-12T00:01:04.798Z,8.76
2022-11-12T00:03:32.499Z,8.76
2022-11-12T00:06:00.186Z,8.72
2022-11-12T00:08:28.271Z,8.92
2022-11-12T00:10:57.537Z,8.87
2022-11-12T00:13:25.265Z,8.91
2022-11-12T00:15:53.003Z,8.80
2022-11-12T00:18:20.945Z,8.78
2022-11-12T00:20:48.638Z,8.76
2022-11-12T00:23:16.333Z,8.70
2022-11-12T00:25:44.061Z,8.70
2022-11-12T00:28:13.246Z,8.77
2022-11-12T00:30:42.245Z,8.90
2022-11-12T00:33:10.202Z,8.90
2022-11-12T00:35:37.988Z,8.82
2022-11-12T00:38:05.704Z,8.83
2022-11-12T00:40:33.392Z,8.92
2022-11-12T00:43:01.075Z,8.80
2022-11-12T00:45:30.110Z,8.77
2022-11-12T00:47:58.267Z,8.87
2022-11-12T00:50:26.620Z,8.82
2022-11-12T00:52:54.678Z,8.83
2022-11-12T00:55:22.522Z,8.83
2022-11-12T00:57:50.602Z,8.85
2022-11-12T01:00:19.909Z,8.77
2022-11-12T01:02:51.252Z,8.74
2022-11-12T01:05:20.386Z,8.80
2022-11-12T01:07:53.155Z,8.92
2022-11-12T01:10:23.486Z,8.97
2022-11-12T01:12:51.176Z,8.90
2022-11-12T01:15:19.172Z,8.94
2022-11-12T01:17:47.051Z,8.94
2022-11-12T01:20:16.238Z,9.03
2022-11-12T01:22:43.971Z,8.98
2022-11-12T01:25:12.130Z,8.90
2022-11-12T01:27:39.968Z,8.81
2022-11-12T01:30:08.704Z,8.76
2022-11-12T01:32:37.779Z,8.72
2022-11-12T01:35:06.717Z,8.80
2022-11-12T01:37:35.801Z,8.86
2022-11-12T01:40:03.609Z,8.92
2022-11-12T01:42:33.837Z,8.79
2022-11-12T01:45:01.571Z,8.73
2022-11-12T01:47:33.008Z,8.76
2022-11-12T01:50:06.791Z,8.66
2022-11-12T01:52:41.240Z,8.85
2022-11-12T01:55:14.699Z,8.79
2022-11-12T01:57:46.781Z,8.78
2022-11-12T02:00:15.244Z,8.84
2022-11-12T02:02:46.601Z,8.80
2022-11-12T02:05:15.994Z,8.69
2022-11-12T02:07:47.007Z,8.77
2022-11-12T02:10:15.253Z,8.81
2022-11-12T02:13:01.400Z,8.79
2022-11-12T02:15:29.303Z,8.85
2022-11-12T02:17:57.053Z,8.78
2022-11-12T02:20:24.914Z,8.77
2022-11-12T02:22:54.350Z,8.82
2022-11-12T02:25:25.564Z,8.79
2022-11-12T02:27:55.484Z,8.77
2022-11-12T02:30:33.766Z,8.86
2022-11-12T02:33:01.565Z,8.75
2022-11-12T02:35:29.308Z,8.84
2022-11-12T02:37:58.976Z,8.81
2022-11-12T02:40:27.341Z,8.82
2022-11-12T02:42:55.254Z,8.83
2022-11-12T02:45:23.555Z,8.90
2022-11-12T02:47:51.241Z,8.90
2022-11-12T02:50:19.553Z,9.04
2022-11-12T02:52:47.261Z,9.24
2022-11-12T02:55:16.482Z,9.31
2022-11-12T02:57:44.169Z,9.06
2022-11-12T03:00:14.401Z,8.98
2022-11-12T03:02:43.574Z,9.05
2022-11-12T03:05:12.706Z,9.05
2022-11-12T03:07:40.806Z,8.99
2022-11-12T03:10:09.002Z,8.86
2022-11-12T03:12:38.042Z,8.95
2022-11-12T03:15:06.630Z,8.83
2022-11-12T03:17:35.782Z,8.78
2022-11-12T03:20:03.902Z,8.73
2022-11-12T03:22:31.958Z,8.90
2022-11-12T03:24:59.673Z,8.89
2022-11-12T03:27:27.396Z,8.92
2022-11-12T03:29:56.456Z,8.97
2022-11-12T03:32:24.343Z,8.88
2022-11-12T03:34:55.373Z,8.80
2022-11-12T03:37:23.329Z,8.83
2022-11-12T03:39:51.031Z,8.82
2022-11-12T03:42:18.745Z,8.81
2022-11-12T03:44:46.452Z,8.78
2022-11-12T03:47:15.706Z,8.83
2022-11-12T03:49:43.414Z,8.89
2022-11-12T03:52:11.106Z,8.82
2022-11-12T03:54:38.823Z,8.94
2022-11-12T03:57:06.520Z,8.88
2022-11-12T03:59:34.216Z,8.93
2022-11-12T04:02:01.927Z,8.97
2022-11-12T04:04:50.989Z,8.97
2022-11-12T04:07:36.239Z,8.90
2022-11-12T04:10:04.208Z,8.86
2022-11-12T04:12:49.263Z,8.85
2022-11-12T04:15:17.101Z,8.90
2022-11-12T04:18:02.377Z,8.94
2022-11-12T04:20:49.045Z,8.87
2022-11-12T04:23:16.746Z,8.87
2022-11-12T04:26:02.558Z,8.90
2022-11-12T04:28:30.219Z,8.85
2022-11-12T04:30:56.908Z,8.90
2022-11-12T04:33:24.602Z,8.99
2022-11-12T04:35:53.699Z,8.96
2022-11-12T04:38:21.361Z,8.89
2022-11-12T04:41:07.220Z,8.89
2022-11-12T04:43:52.549Z,8.85
2022-11-12T04:46:20.279Z,8.87
2022-11-12T04:48:48.012Z,8.92
2022-11-12T04:51:34.750Z,8.91
2022-11-12T04:54:02.826Z,8.94
2022-11-12T04:56:30.597Z,8.95
2022-11-12T04:58:58.606Z,8.93
2022-11-12T05:01:26.388Z,8.96
2022-11-12T05:03:54.083Z,8.92
2022-11-12T05:06:37.211Z,8.97
2022-11-12T05:09:05.005Z,8.96
2022-11-12T05:11:32.685Z,9.00
2022-11-12T05:14:00.514Z,9.17
2022-11-12T05:16:28.238Z,9.14
2022-11-12T05:18:55.912Z,9.05
2022-11-12T05:21:43.598Z,9.08
2022-11-12T05:24:22.478Z,8.99
2022-11-12T05:26:59.244Z,8.95
2022-11-12T05:29:27.079Z,8.89
2022-11-12T05:31:55.156Z,8.84
2022-11-12T05:34:23.274Z,8.87
2022-11-12T05:36:52.792Z,8.89
2022-11-12T05:39:20.545Z,8.73
2022-11-12T05:42:11.340Z,8.81
2022-11-12T05:44:36.526Z,8.72
2022-11-12T05:47:04.443Z,8.70
2022-11-12T05:49:32.145Z,8.72
2022-11-12T05:52:01.211Z,8.73
2022-11-12T05:54:29.043Z,8.70
2022-11-12T05:56:56.768Z,8.63
2022-11-12T05:59:24.493Z,8.62
2022-11-12T06:01:52.187Z,8.62
2022-11-12T06:04:20.021Z,8.61
2022-11-12T06:06:47.708Z,8.72
2022-11-12T06:09:17.159Z,8.72
2022-11-12T06:11:45.283Z,8.79
2022-11-12T06:14:13.241Z,8.80
2022-11-12T06:16:40.948Z,8.89
2022-11-12T06:19:08.813Z,8.92
2022-11-12T06:21:36.525Z,8.96
2022-11-12T06:24:04.886Z,8.92
2022-11-12T06:26:33.957Z,8.93
2022-11-12T06:29:01.694Z,8.77
2022-11-12T06:31:29.390Z,8.77
2022-11-12T06:33:57.070Z,8.82
2022-11-12T06:36:24.895Z,8.79
2022-11-12T06:38:52.583Z,8.77
2022-11-12T06:41:20.533Z,8.76
2022-11-12T06:43:49.628Z,8.74
2022-11-12T06:46:18.333Z,8.72
2022-11-12T06:48:46.018Z,8.78
2022-11-12T06:51:17.912Z,8.82
2022-11-12T06:53:46.278Z,8.88
2022-11-12T06:56:14.858Z,8.85
2022-11-12T06:58:42.799Z,8.75
2022-11-12T07:01:13.550Z,8.77
2022-11-12T07:03:42.654Z,8.76
2022-11-12T07:06:13.053Z,8.79
2022-11-12T07:08:41.726Z,8.71
2022-11-12T07:11:09.504Z,8.66
2022-11-12T07:13:37.742Z,8.61
2022-11-12T07:16:07.464Z,8.56
2022-11-12T07:18:37.293Z,8.67
2022-11-12T07:21:07.428Z,8.49
2022-11-12T07:23:37.173Z,8.67
2022-11-12T07:26:07.110Z,8.76
2022-11-12T07:28:35.168Z,8.81
2022-11-12T07:31:06.017Z,8.87
2022-11-12T07:33:34.798Z,8.90
2022-11-12T07:36:06.131Z,8.98
2022-11-12T07:38:35.669Z,8.90
2022-11-12T07:41:05.530Z,8.95
2022-11-12T07:43:34.646Z,8.94
2022-11-12T07:46:10.087Z,8.93
2022-11-12T07:48:39.001Z,8.92
2022-11-12T07:51:12.876Z,8.81
2022-11-12T07:53:41.114Z,8.85
2022-11-12T07:56:11.374Z,8.71
2022-11-12T07:58:39.479Z,8.65
2022-11-12T08:01:11.337Z,8.86
2022-11-12T08:03:39.286Z,8.73
2022-11-12T08:06:09.297Z,8.76
2022-11-12T08:08:36.989Z,8.92
2022-11-12T08:11:04.774Z,8.97
2022-11-12T08:13:32.596Z,8.92
2022-11-12T08:16:00.757Z,9.06
2022-11-12T08:18:29.871Z,8.93
2022-11-12T08:21:01.528Z,9.01
2022-11-12T08:23:31.230Z,8.92
2022-11-12T08:26:00.221Z,9.01
2022-11-12T08:28:29.841Z,8.92
2022-11-12T08:30:58.067Z,8.84
2022-11-12T08:33:25.797Z,8.89
2022-11-12T08:35:53.550Z,8.87
2022-11-12T08:38:21.252Z,8.90
2022-11-12T08:40:50.267Z,8.97
2022-11-12T08:43:18.403Z,9.07
2022-11-12T08:45:46.083Z,9.22
2022-11-12T08:48:15.336Z,9.19
2022-11-12T08:50:43.529Z,9.20
2022-11-12T08:53:13.034Z,9.28
2022-11-12T08:55:41.383Z,9.44
2022-11-12T08:58:11.234Z,9.37
2022-11-12T09:00:42.108Z,9.09
2022-11-12T09:03:15.685Z,9.40
2022-11-12T09:05:43.751Z,9.36
2022-11-12T09:08:13.512Z,9.34
2022-11-12T09:10:42.228Z,9.29
2022-11-12T09:13:11.754Z,9.35
2022-11-12T09:15:39.453Z,9.36
2022-11-12T09:18:10.049Z,9.45
2022-11-12T09:20:37.732Z,9.59
2022-11-12T09:23:09.589Z,9.34
2022-11-12T09:25:37.707Z,9.43
2022-11-12T09:28:12.544Z,9.24
2022-11-12T09:30:45.406Z,9.42
2022-11-12T09:33:13.426Z,9.33
2022-11-12T09:35:41.183Z,9.40
2022-11-12T09:38:09.001Z,9.45
2022-11-12T09:40:57.135Z,9.62
2022-11-12T09:43:30.644Z,9.56
2022-11-12T09:46:26.529Z,9.76
2022-11-12T09:48:56.486Z,9.79
2022-11-12T09:51:28.425Z,9.99
2022-11-12T09:53:58.249Z,9.73
2022-11-12T09:56:28.187Z,9.69
2022-11-12T09:58:57.856Z,9.99
2022-11-12T10:01:39.873Z,10.19
2022-11-12T10:04:26.509Z,10.23
2022-11-12T10:07:01.474Z,9.94
2022-11-12T10:09:35.561Z,9.83
2022-11-12T10:12:31.254Z,9.97
2022-11-12T10:15:54.872Z,10.15
2022-11-12T10:18:30.888Z,9.90
2022-11-12T10:21:05.811Z,9.79
2022-11-12T10:23:41.780Z,9.77
2022-11-12T10:26:15.079Z,10.02
2022-11-12T10:28:47.735Z,9.96
2022-11-12T10:31:18.722Z,10.21
2022-11-12T10:33:46.435Z,10.06
2022-11-12T10:36:22.449Z,10.23
2022-11-12T10:38:53.520Z,10.00
2022-11-12T10:41:24.829Z,10.23
2022-11-12T10:44:00.187Z,9.94
2022-11-12T10:46:31.740Z,9.86
2022-11-12T10:49:02.461Z,9.54
2022-11-12T10:51:35.339Z,9.53
2022-11-12T10:54:22.969Z,9.92
2022-11-12T10:56:55.489Z,10.16
2022-11-12T10:59:24.785Z,10.08
2022-11-12T11:01:58.673Z,10.20
2022-11-12T11:04:32.354Z,10.06
2022-11-12T11:07:06.460Z,10.33
2022-11-12T11:09:35.399Z,10.60
2022-11-12T11:12:03.217Z,10.64
2022-11-12T11:14:33.795Z,10.81
2022-11-12T11:17:08.539Z,10.60
2022-11-12T11:19:40.137Z,10.47
2022-11-12T11:22:37.020Z,10.60
2022-11-12T11:25:16.129Z,10.42
2022-11-12T11:28:00.646Z,10.61
2022-11-12T11:30:28.632Z,10.53
2022-11-12T11:33:15.623Z,10.38
2022-11-12T11:35:55.336Z,10.67
2022-11-12T11:38:35.005Z,10.63
2022-11-12T11:41:18.496Z,10.29
2022-11-12T11:44:00.003Z,10.76
2022-11-12T11:46:42.556Z,10.95
2022-11-12T11:50:00.524Z,10.98
2022-11-12T11:52:45.774Z,10.65
2022-11-12T11:55:25.018Z,10.73
2022-11-12T11:58:00.612Z,10.77
2022-11-12T12:00:36.342Z,11.03
2022-11-12T12:03:22.850Z,10.71
2022-11-12T12:06:06.470Z,11.02
2022-11-12T12:08:51.891Z,10.93
2022-11-12T12:11:24.857Z,10.85
2022-11-12T12:14:05.926Z,11.18
2022-11-12T12:16:53.779Z,11.21
2022-11-12T12:19:42.690Z,10.62
2022-11-12T12:22:15.346Z,10.83
2022-11-12T12:24:51.291Z,11.09
2022-11-12T12:27:22.897Z,10.90
2022-11-12T12:29:53.212Z,10.79
2022-11-12T12:32:27.934Z,10.95
2022-11-12T12:35:03.306Z,11.14
2022-11-12T12:37:36.956Z,11.32
2022-11-12T12:40:16.280Z,10.67
2022-11-12T12:42:49.315Z,11.01
2022-11-12T12:45:36.193Z,11.28
2022-11-12T12:48:06.997Z,11.09
2022-11-12T12:50:39.614Z,10.76
2022-11-12T12:53:18.316Z,11.05
2022-11-12T12:55:49.492Z,11.25
2022-11-12T12:58:26.338Z,11.56
2022-11-12T13:00:59.593Z,11.22
2022-11-12T13:03:57.151Z,11.05
2022-11-12T13:06:27.751Z,11.40
2022-11-12T13:08:58.954Z,11.30
2022-11-12T13:12:08.855Z,11.36
2022-11-12T13:15:14.854Z,11.47
2022-11-12T13:18:00.208Z,11.36
2022-11-12T13:20:40.924Z,11.31
2022-11-12T13:23:53.983Z,10.84
2022-11-12T13:26:57.918Z,10.53
2022-11-12T13:29:44.374Z,10.79
2022-11-12T13:32:33.809Z,11.11
2022-11-12T13:35:27.867Z,11.18
2022-11-12T13:37:57.477Z,11.09
2022-11-12T13:40:38.296Z,11.16
2022-11-12T13:43:14.363Z,11.20
2022-11-12T13:45:46.514Z,11.01
2022-11-12T13:48:16.045Z,10.89
2022-11-12T13:50:50.016Z,10.75
2022-11-12T13:53:23.606Z,10.82
2022-11-12T13:55:52.194Z,10.72
2022-11-12T13:58:28.373Z,11.07
2022-11-12T14:00:57.514Z,11.06
2022-11-12T14:03:29.300Z,11.06
2022-11-12T14:05:58.246Z,11.19
2022-11-12T14:08:36.967Z,11.28
2022-11-12T14:11:22.548Z,11.32
2022-11-12T14:14:06.398Z,11.12
2022-11-12T14:16:49.113Z,10.82
2022-11-12T14:19:39.488Z,10.66
2022-11-12T14:22:16.529Z,10.52
2022-11-12T14:24:45.861Z,10.50
2022-11-12T14:27:33.227Z,10.49
2022-11-12T14:30:18.720Z,10.56
2022-11-12T14:32:48.274Z,10.64
2022-11-12T14:35:31.648Z,10.63
2022-11-12T14:38:04.598Z,10.44
2022-11-12T14:40:34.683Z,10.44
2022-11-12T14:43:02.365Z,10.61
2022-11-12T14:45:35.211Z,10.34
2022-11-12T14:48:03.345Z,10.42
2022-11-12T14:50:39.213Z,10.29
2022-11-12T14:53:17.276Z,10.04
2022-11-12T14:55:51.866Z,10.10
2022-11-12T14:58:21.701Z,10.03
2022-11-12T15:00:52.632Z,9.97
2022-11-12T15:03:24.173Z,9.96
2022-11-12T15:06:08.556Z,9.73
2022-11-12T15:08:38.253Z,9.53
2022-11-12T15:11:24.747Z,9.55
2022-11-12T15:13:56.281Z,9.38
2022-11-12T15:16:28.368Z,9.46
2022-11-12T15:19:07.644Z,9.54
2022-11-12T15:21:36.427Z,9.39
2022-11-12T15:24:08.749Z,9.36
2022-11-12T15:26:39.811Z,9.23
2022-11-12T15:29:23.570Z,9.23
2022-11-12T15:31:54.651Z,9.02
2022-11-12T15:34:28.036Z,8.93
2022-11-12T15:36:56.932Z,8.85
2022-11-12T15:39:26.142Z,8.69
2022-11-12T15:41:59.326Z,8.65
2022-11-12T15:44:27.556Z,8.55
2022-11-12T15:46:58.791Z,8.49
2022-11-12T15:49:26.534Z,8.38
2022-11-12T15:51:54.575Z,8.40
2022-11-12T15:54:22.315Z,8.34
2022-11-12T15:56:50.866Z,8.40
2022-11-12T15:59:19.456Z,8.39
2022-11-12T16:01:47.385Z,8.48
2022-11-12T16:04:16.524Z,8.52
2022-11-12T16:06:44.334Z,8.63
2022-11-12T16:09:12.079Z,8.69
2022-11-12T16:11:40.146Z,8.75
2022-11-12T16:14:13.755Z,8.77
2022-11-12T16:16:41.489Z,8.72
2022-11-12T16:19:14.619Z,8.78
2022-11-12T16:21:43.708Z,8.77
2022-11-12T16:24:11.473Z,8.86
2022-11-12T16:26:39.397Z,8.85
2022-11-12T16:29:12.930Z,8.65
2022-11-12T16:31:42.737Z,8.80
2022-11-12T16:34:10.445Z,8.68
2022-11-12T16:36:38.534Z,8.77
2022-11-12T16:39:07.746Z,8.70
2022-11-12T16:41:35.397Z,8.79
2022-11-12T16:44:03.590Z,8.75
2022-11-12T16:46:39.272Z,8.84
2022-11-12T16:49:07.406Z,8.89
2022-11-12T16:51:35.222Z,8.93
2022-11-12T16:54:02.999Z,8.93
2022-11-12T16:56:32.574Z,8.87
2022-11-12T16:59:00.583Z,8.92
2022-11-12T17:01:30.091Z,8.90
2022-11-12T17:03:58.771Z,8.94
2022-11-12T17:06:33.904Z,8.78
2022-11-12T17:09:01.584Z,8.88
2022-11-12T17:11:29.294Z,8.94
2022-11-12T17:13:58.372Z,8.82
2022-11-12T17:16:26.085Z,8.78
2022-11-12T17:18:57.881Z,8.66
2022-11-12T17:21:26.341Z,8.83
2022-11-12T17:23:56.219Z,8.76
2022-11-12T17:26:24.122Z,8.82
2022-11-12T17:28:59.208Z,8.84
2022-11-12T17:31:30.681Z,8.78
2022-11-12T17:33:58.635Z,8.69
2022-11-12T17:36:28.516Z,8.80
2022-11-12T17:38:56.860Z,8.78
2022-11-12T17:41:25.269Z,8.62
2022-11-12T17:43:55.413Z,8.68
2022-11-12T17:46:23.141Z,8.71
2022-11-12T17:48:52.511Z,8.69
2022-11-12T17:51:22.689Z,8.60
2022-11-12T17:53:50.730Z,8.61
2022-11-12T17:56:20.779Z,8.69
2022-11-12T17:58:49.661Z,8.64
2022-11-12T18:01:19.679Z,8.64
2022-11-12T18:03:50.186Z,8.63
2022-11-12T18:06:20.789Z,8.49
2022-11-12T18:08:52.942Z,8.61
2022-11-12T18:11:20.570Z,8.66
2022-11-12T18:13:48.317Z,8.74
2022-11-12T18:16:17.330Z,8.76
2022-11-12T18:18:45.831Z,8.71
2022-11-12T18:21:14.185Z,8.69
2022-11-12T18:23:45.248Z,8.60
2022-11-12T18:26:15.125Z,8.61
2022-11-12T18:28:43.184Z,8.73
2022-11-12T18:31:13.405Z,8.61
2022-11-12T18:33:41.079Z,8.63
2022-11-12T18:36:12.456Z,8.63
2022-11-12T18:38:40.166Z,8.59
2022-11-12T18:41:11.316Z,8.72
2022-11-12T18:43:40.098Z,8.69
2022-11-12T18:46:09.542Z,8.66
2022-11-12T18:48:38.972Z,8.60
2022-11-12T18:51:08.469Z,8.68
2022-11-12T18:53:37.473Z,8.55
2022-11-12T18:56:07.902Z,8.49
2022-11-12T18:58:37.384Z,8.61
2022-11-12T19:01:05.858Z,8.70
2022-11-12T19:03:33.657Z,8.54
2022-11-12T19:06:02.437Z,8.64
2022-11-12T19:08:30.183Z,8.66
2022-11-12T19:10:59.444Z,8.63
2022-11-12T19:13:27.629Z,8.64
2022-11-12T19:16:03.260Z,8.51
2022-11-12T19:18:31.209Z,8.58
2022-11-12T19:21:03.447Z,8.46
2022-11-12T19:23:31.622Z,8.42
2022-11-12T19:26:01.011Z,8.38
2022-11-12T19:28:29.188Z,8.43
2022-11-12T19:30:59.163Z,8.38
2022-11-12T19:33:26.925Z,8.45
2022-11-12T19:35:54.688Z,8.43
2022-11-12T19:38:22.741Z,8.50
2022-11-12T19:40:50.620Z,8.31
2022-11-12T19:43:18.574Z,8.41
2022-11-12T19:45:46.357Z,8.36
2022-11-12T19:48:15.550Z,8.44
2022-11-12T19:50:43.241Z,8.32
2022-11-12T19:53:10.904Z,8.23
2022-11-12T19:55:39.979Z,8.31
2022-11-12T19:58:08.236Z,8.50
2022-11-12T20:00:36.449Z,8.43
2022-11-12T20:03:04.400Z,8.34
2022-11-12T20:05:33.512Z,8.38
2022-11-12T20:08:01.296Z,8.38
2022-11-12T20:10:29.033Z,8.35
2022-11-12T20:12:56.777Z,8.33
2022-11-12T20:15:24.523Z,8.25
2022-11-12T20:17:52.268Z,8.26
2022-11-12T20:20:20.147Z,8.05
2022-11-12T20:22:49.342Z,8.04
2022-11-12T20:25:17.147Z,8.11
2022-11-12T20:27:44.908Z,8.04
2022-11-12T20:30:13.429Z,8.17
2022-11-12T20:32:41.184Z,8.19
2022-11-12T20:35:17.738Z,8.15
2022-11-12T20:37:50.343Z,8.10
2022-11-12T20:40:18.472Z,8.09
2022-11-12T20:42:46.807Z,8.01
2022-11-12T20:45:14.672Z,7.99
2022-11-12T20:47:42.649Z,8.03
2022-11-12T20:50:10.799Z,8.07
2022-11-12T20:52:38.517Z,8.14
2022-11-12T20:55:08.297Z,8.08
2022-11-12T20:57:36.050Z,7.96
2022-11-12T21:00:03.838Z,7.98
2022-11-12T21:02:31.557Z,7.90
2022-11-12T21:04:59.249Z,8.23
2022-11-12T21:07:27.068Z,8.04
2022-11-12T21:09:54.942Z,8.04
2022-11-12T21:12:23.988Z,8.03
2022-11-12T21:14:51.676Z,7.90
2022-11-12T21:17:19.814Z,7.89
2022-11-12T21:19:47.563Z,7.82
2022-11-12T21:22:17.136Z,7.93
2022-11-12T21:24:44.835Z,7.97
2022-11-12T21:27:14.131Z,8.04
2022-11-12T21:29:43.522Z,7.92
2022-11-12T21:32:11.306Z,7.93
2022-11-12T21:34:39.028Z,7.72
2022-11-12T21:37:06.700Z,7.83
2022-11-12T21:39:34.436Z,7.90
2022-11-12T21:42:02.264Z,7.98
2022-11-12T21:44:30.325Z,7.89
2022-11-12T21:46:59.767Z,7.69
2022-11-12T21:49:27.593Z,7.63
2022-11-12T21:51:55.267Z,7.65
2022-11-12T21:54:23.150Z,7.77
2022-11-12T21:56:50.881Z,7.73
2022-11-12T21:59:18.920Z,7.75
2022-11-12T22:01:46.680Z,7.83
2022-11-12T22:04:18.413Z,7.72
2022-11-12T22:06:46.418Z,7.65
2022-11-12T22:09:14.245Z,7.75
2022-11-12T22:11:41.976Z,7.70
2022-11-12T22:14:09.661Z,7.81
2022-11-12T22:16:37.741Z,7.75
2022-11-12T22:19:05.442Z,7.67
2022-11-12T22:21:39.746Z,7.81
2022-11-12T22:24:08.739Z,7.68
2022-11-12T22:26:36.548Z,7.58
2022-11-12T22:29:04.476Z,7.54
2022-11-12T22:31:33.712Z,7.48
2022-11-12T22:34:02.661Z,7.39
2022-11-12T22:36:32.838Z,7.51
2022-11-12T22:39:01.984Z,7.45
2022-11-12T22:41:31.443Z,7.50
2022-11-12T22:44:02.137Z,7.50
2022-11-12T22:46:33.452Z,7.40
2022-11-12T22:49:02.247Z,7.48
2022-11-12T22:51:33.750Z,7.32
2022-11-12T22:54:04.482Z,7.47
2022-11-12T22:56:34.278Z,7.42
2022-11-12T22:59:03.460Z,7.33
2022-11-12T23:01:32.921Z,7.43
2022-11-12T23:04:02.818Z,7.44
2022-11-12T23:06:31.767Z,7.45
2022-11-12T23:09:00.834Z,7.47
2022-11-12T23:11:30.324Z,7.54
2022-11-12T23:13:58.383Z,7.58
2022-11-12T23:16:29.522Z,7.54
2022-11-12T23:18:57.671Z,7.57
2022-11-12T23:21:27.484Z,7.57
2022-11-12T23:23:57.138Z,7.64
2022-11-12T23:26:26.421Z,7.69
2022-11-12T23:28:55.508Z,7.70
2022-11-12T23:31:24.697Z,7.46
2022-11-12T23:33:54.192Z,7.44
2022-11-12T23:36:22.887Z,7.39
2022-11-12T23:38:51.877Z,7.46
2022-11-12T23:41:22.699Z,7.42
2022-11-12T23:43:50.916Z,7.30
2022-11-12T23:46:20.115Z,7.45
2022-11-12T23:48:47.881Z,7.50
2022-11-12T23:51:17.688Z,7.46
2022-11-12T23:53:45.477Z,7.37
2022-11-12T23:56:15.699Z,7.36
2022-11-12T23:58:43.828Z,7.44
